Time;durP1;ratioP1;P1;durP2;ratioP2;P2;SDS_P1;SDS_P2;PMS_P1;PMS_P2;Temp;Humidity;BMP_temperature;BMP_pressure;BME280_temperature;BME280_humidity;BME280_pressure;Samples;Min_cycle;Max_cycle;Signal;HPM_P1;HPM_P2
2022/08/20 00:01:21;;;;;;;10.20;3.35;;;;;;;;;;5023665;28;20549;-68
2022/08/20 00:03:46;;;;;;;8.88;3.47;;;;;;;;;;5020473;28;20045;-68
2022/08/20 00:06:13;;;;;;;8.93;3.45;;;;;;;;;;5020356;28;20047;-67
2022/08/20 00:08:39;;;;;;;8.52;3.25;;;;;;;;;;5021834;28;20544;-68
2022/08/20 00:11:06;;;;;;;10.05;3.38;;;;;;;;;;5008481;28;20302;-68
2022/08/20 00:13:34;;;;;;;9.32;3.25;;;;;;;;;;5021628;28;20560;-68
2022/08/20 00:16:01;;;;;;;10.27;2.97;;;;;;;;;;5020716;28;20093;-67
2022/08/20 00:18:26;;;;;;;10.55;3.35;;;;;;;;;;5021711;28;20046;-67
2022/08/20 00:20:53;;;;;;;7.50;3.10;;;;;;;;;;5017128;28;20210;-68
2022/08/20 00:23:19;;;;;;;12.10;3.47;;;;;;;;;;5042087;27;20051;-67
2022/08/20 00:25:44;;;;;;;10.15;3.15;;;;;;;;;;5023309;28;20028;-67
2022/08/20 00:28:11;;;;;;;9.57;2.97;;;;;;;;;;5020078;28;20439;-68
2022/08/20 00:30:37;;;;;;;13.02;3.42;;;;;;;;;;5023938;28;20067;-73
2022/08/20 00:33:11;;;;;;;11.77;3.53;;;;;;;;;;5027055;28;20055;-72
2022/08/20 00:35:39;;;;;;;8.93;3.03;;;;;;;;;;5030665;28;20653;-72
2022/08/20 00:38:04;;;;;;;7.65;2.95;;;;;;;;;;5029548;28;21733;-73
2022/08/20 00:40:34;;;;;;;10.85;3.08;;;;;;;;;;5033755;28;20037;-72
2022/08/20 00:43:00;;;;;;;11.43;3.08;;;;;;;;;;5030848;28;20111;-73
2022/08/20 00:45:27;;;;;;;10.30;2.90;;;;;;;;;;5030850;28;20055;-73
2022/08/20 00:47:56;;;;;;;8.55;2.80;;;;;;;;;;5031934;28;20044;-72
2022/08/20 00:50:25;;;;;;;9.93;3.00;;;;;;;;;;5045177;28;20855;-72
2022/08/20 00:52:51;;;;;;;8.57;2.85;;;;;;;;;;5029237;28;20439;-72
2022/08/20 00:55:19;;;;;;;7.88;2.63;;;;;;;;;;5031969;28;20043;-73
2022/08/20 00:57:52;;;;;;;8.05;3.08;;;;;;;;;;5033757;28;20221;-72
2022/08/20 01:00:23;;;;;;;10.38;3.28;;;;;;;;;;5030200;28;20484;-73
2022/08/20 01:02:49;;;;;;;9.38;2.90;;;;;;;;;;5018469;28;20037;-73
2022/08/20 01:05:15;;;;;;;11.13;3.40;;;;;;;;;;5032133;28;20613;-72
2022/08/20 01:07:41;;;;;;;10.35;2.92;;;;;;;;;;5028130;28;20059;-72
2022/08/20 01:10:15;;;;;;;11.70;3.05;;;;;;;;;;5031296;28;20052;-73
2022/08/20 01:12:43;;;;;;;10.32;3.00;;;;;;;;;;5028934;28;20209;-72
2022/08/20 01:15:12;;;;;;;9.25;3.13;;;;;;;;;;5029164;28;20044;-71
2022/08/20 01:17:40;;;;;;;11.07;3.05;;;;;;;;;;5033682;28;20115;-72
2022/08/20 01:20:17;;;;;;;10.52;3.30;;;;;;;;;;5030124;28;20114;-73
2022/08/20 01:23:28;;;;;;;7.88;2.90;;;;;;;;;;5031642;28;20461;-73
2022/08/20 01:26:12;;;;;;;9.27;3.70;;;;;;;;;;4993125;28;20645;-73
2022/08/20 01:28:42;;;;;;;7.65;3.08;;;;;;;;;;4992985;28;20033;-72
2022/08/20 01:31:11;;;;;;;10.30;3.28;;;;;;;;;;5016205;28;20420;-72
2022/08/20 01:33:36;;;;;;;9.55;3.40;;;;;;;;;;5030460;28;20033;-72
2022/08/20 01:36:02;;;;;;;10.60;2.95;;;;;;;;;;5028247;28;20039;-73
2022/08/20 01:38:28;;;;;;;9.43;3.55;;;;;;;;;;5028529;28;20029;-73
2022/08/20 01:41:02;;;;;;;10.65;3.47;;;;;;;;;;5028472;28;20740;-72
2022/08/20 01:43:28;;;;;;;10.07;3.13;;;;;;;;;;5027178;28;20040;-73
2022/08/20 01:45:53;;;;;;;10.15;3.17;;;;;;;;;;5027675;28;20055;-72
2022/08/20 01:48:20;;;;;;;11.88;3.50;;;;;;;;;;5028804;28;20685;-72
2022/08/20 01:50:53;;;;;;;13.38;4.05;;;;;;;;;;5034051;28;20037;-73
2022/08/20 01:53:32;;;;;;;9.30;3.58;;;;;;;;;;5032441;28;20500;-72
2022/08/20 01:55:57;;;;;;;12.60;3.50;;;;;;;;;;5026682;28;20097;-73
2022/08/20 01:58:23;;;;;;;11.82;3.70;;;;;;;;;;5029529;28;20750;-72
2022/08/20 02:00:48;;;;;;;10.52;3.20;;;;;;;;;;5041994;28;20067;-73
2022/08/20 02:03:14;;;;;;;9.43;3.22;;;;;;;;;;5027208;28;20089;-72
2022/08/20 02:05:40;;;;;;;11.27;3.38;;;;;;;;;;5027547;28;20681;-72
2022/08/20 02:08:05;;;;;;;12.30;3.72;;;;;;;;;;5028643;28;20029;-73
2022/08/20 02:10:30;;;;;;;12.00;3.53;;;;;;;;;;5043247;28;20529;-72
2022/08/20 02:12:57;;;;;;;8.65;3.40;;;;;;;;;;5028827;28;20025;-73
2022/08/20 02:15:22;;;;;;;10.50;4.00;;;;;;;;;;5031006;28;20035;-73
2022/08/20 02:17:48;;;;;;;9.27;3.75;;;;;;;;;;5029362;28;20449;-73
2022/08/20 02:20:15;;;;;;;10.43;3.83;;;;;;;;;;5047229;28;20142;-73
2022/08/20 02:22:44;;;;;;;8.93;3.35;;;;;;;;;;5035137;28;20804;-73
2022/08/20 02:25:10;;;;;;;9.63;3.30;;;;;;;;;;5030728;28;20037;-73
2022/08/20 02:27:35;;;;;;;11.57;3.72;;;;;;;;;;5028650;28;20642;-73
2022/08/20 02:30:03;;;;;;;9.70;3.30;;;;;;;;;;5030147;28;20067;-73
2022/08/20 02:32:28;;;;;;;10.88;3.70;;;;;;;;;;5027859;28;20646;-72
2022/08/20 02:34:53;;;;;;;11.65;3.80;;;;;;;;;;5025375;28;20037;-72
2022/08/20 02:37:19;;;;;;;9.10;3.78;;;;;;;;;;5022720;28;20450;-67
2022/08/20 02:39:45;;;;;;;8.75;3.63;;;;;;;;;;5031959;28;20036;-67
2022/08/20 02:42:11;;;;;;;9.68;3.80;;;;;;;;;;5021659;28;20056;-67
2022/08/20 02:44:37;;;;;;;10.30;3.50;;;;;;;;;;5017669;28;20595;-67
2022/08/20 02:47:03;;;;;;;15.13;3.83;;;;;;;;;;5014601;28;20824;-67
2022/08/20 02:49:28;;;;;;;8.73;3.60;;;;;;;;;;5021312;28;20041;-67
2022/08/20 02:51:54;;;;;;;11.13;3.65;;;;;;;;;;5022709;28;21097;-67
2022/08/20 02:54:19;;;;;;;10.32;3.95;;;;;;;;;;5004355;28;20060;-67
2022/08/20 02:56:44;;;;;;;15.27;5.30;;;;;;;;;;5016681;28;20041;-67
2022/08/20 02:59:10;;;;;;;14.07;4.65;;;;;;;;;;5004683;28;20036;-67
2022/08/20 03:01:36;;;;;;;14.05;5.22;;;;;;;;;;5015353;28;20124;-67
2022/08/20 03:04:02;;;;;;;14.40;5.20;;;;;;;;;;5017174;28;20074;-67
2022/08/20 03:06:27;;;;;;;12.15;5.13;;;;;;;;;;5016999;28;20033;-67
2022/08/20 03:08:53;;;;;;;12.77;4.40;;;;;;;;;;5017074;28;20129;-67
2022/08/20 03:11:19;;;;;;;12.13;4.20;;;;;;;;;;5020000;28;20046;-67
2022/08/20 03:13:44;;;;;;;11.43;4.22;;;;;;;;;;5018345;28;20595;-67
2022/08/20 03:16:10;;;;;;;11.48;4.28;;;;;;;;;;5015373;28;21035;-67
2022/08/20 03:18:41;;;;;;;9.75;4.43;;;;;;;;;;5021658;28;20036;-67
2022/08/20 03:21:09;;;;;;;11.05;4.15;;;;;;;;;;5023215;28;20086;-68
2022/08/20 03:23:34;;;;;;;11.07;4.60;;;;;;;;;;5023461;28;20032;-68
2022/08/20 03:26:00;;;;;;;14.25;4.30;;;;;;;;;;5023948;28;20037;-67
2022/08/20 03:28:26;;;;;;;11.27;4.03;;;;;;;;;;5024221;28;20191;-66
2022/08/20 03:30:52;;;;;;;10.55;3.97;;;;;;;;;;5027842;28;20876;-67
2022/08/20 03:33:19;;;;;;;11.20;3.65;;;;;;;;;;5025035;28;20359;-67
2022/08/20 03:35:44;;;;;;;9.43;3.90;;;;;;;;;;5038770;28;20281;-67
2022/08/20 03:38:12;;;;;;;8.60;3.80;;;;;;;;;;5024283;28;20071;-67
2022/08/20 03:40:37;;;;;;;10.48;3.67;;;;;;;;;;5023540;28;20139;-67
2022/08/20 03:43:03;;;;;;;10.88;4.10;;;;;;;;;;5023519;28;20039;-67
2022/08/20 03:45:29;;;;;;;11.52;4.63;;;;;;;;;;5041400;27;20036;-67
2022/08/20 03:47:54;;;;;;;11.18;4.32;;;;;;;;;;5012969;28;20428;-67
2022/08/20 03:50:22;;;;;;;10.77;4.28;;;;;;;;;;5031622;28;20318;-73
2022/08/20 03:52:48;;;;;;;12.35;4.68;;;;;;;;;;5036921;28;20048;-72
2022/08/20 03:55:13;;;;;;;11.38;4.68;;;;;;;;;;5052188;28;20038;-72
2022/08/20 03:57:46;;;;;;;10.57;4.50;;;;;;;;;;5032105;28;20048;-72
2022/08/20 04:00:12;;;;;;;12.00;4.13;;;;;;;;;;5033471;28;20127;-72
2022/08/20 04:02:38;;;;;;;10.77;4.25;;;;;;;;;;5036415;28;20062;-72
2022/08/20 04:05:03;;;;;;;11.48;4.28;;;;;;;;;;5028811;28;20111;-72
2022/08/20 04:07:29;;;;;;;14.82;4.43;;;;;;;;;;5037859;28;20369;-73
2022/08/20 04:09:55;;;;;;;11.82;4.40;;;;;;;;;;5036591;28;20657;-74
2022/08/20 04:12:23;;;;;;;8.60;4.28;;;;;;;;;;5034100;28;20052;-72
2022/08/20 04:14:49;;;;;;;11.40;4.43;;;;;;;;;;5033027;28;20192;-72
2022/08/20 04:17:15;;;;;;;10.45;4.97;;;;;;;;;;5035277;28;20048;-75
2022/08/20 04:19:41;;;;;;;16.35;6.13;;;;;;;;;;5035539;28;20042;-72
2022/08/20 04:22:06;;;;;;;13.75;6.32;;;;;;;;;;5037246;28;20037;-73
2022/08/20 04:24:32;;;;;;;15.30;6.45;;;;;;;;;;5052320;28;20130;-72
2022/08/20 04:26:59;;;;;;;14.23;5.75;;;;;;;;;;5039419;28;20044;-74
2022/08/20 04:29:25;;;;;;;16.13;5.07;;;;;;;;;;5035833;28;20420;-74
2022/08/20 04:31:54;;;;;;;10.55;4.85;;;;;;;;;;5048672;28;20037;-73
2022/08/20 04:34:20;;;;;;;14.00;5.20;;;;;;;;;;5034517;28;20047;-72
2022/08/20 04:36:46;;;;;;;13.27;5.18;;;;;;;;;;5039669;28;20036;-72
2022/08/20 04:39:13;;;;;;;14.40;4.82;;;;;;;;;;5035760;28;20040;-72
2022/08/20 04:41:39;;;;;;;13.57;5.28;;;;;;;;;;5035615;28;20516;-73
2022/08/20 04:44:05;;;;;;;16.25;5.28;;;;;;;;;;5038711;28;20033;-72
2022/08/20 04:46:31;;;;;;;12.23;4.93;;;;;;;;;;5037181;28;20041;-72
2022/08/20 04:48:57;;;;;;;11.43;5.82;;;;;;;;;;5051536;28;20036;-74
2022/08/20 04:51:22;;;;;;;15.95;6.13;;;;;;;;;;5035789;28;20037;-74
2022/08/20 04:53:48;;;;;;;14.63;6.63;;;;;;;;;;5033922;28;20121;-74
2022/08/20 04:56:13;;;;;;;16.10;5.80;;;;;;;;;;5050588;28;20059;-74
2022/08/20 04:58:39;;;;;;;11.80;4.85;;;;;;;;;;5035672;28;20025;-74
2022/08/20 05:01:07;;;;;;;11.77;5.40;;;;;;;;;;5034888;28;20095;-74
2022/08/20 05:03:33;;;;;;;14.50;5.05;;;;;;;;;;5033367;28;20099;-74
2022/08/20 05:06:00;;;;;;;12.65;5.00;;;;;;;;;;5038670;28;20803;-74
2022/08/20 05:08:26;;;;;;;9.95;5.25;;;;;;;;;;5036602;28;20153;-74
2022/08/20 05:10:53;;;;;;;11.15;4.82;;;;;;;;;;5037708;28;20104;-73
2022/08/20 05:13:19;;;;;;;14.63;4.65;;;;;;;;;;5038969;28;20106;-73
2022/08/20 05:15:44;;;;;;;11.65;4.45;;;;;;;;;;5038013;28;20092;-73
2022/08/20 05:18:10;;;;;;;14.07;4.75;;;;;;;;;;5038333;28;20040;-72
2022/08/20 05:20:38;;;;;;;10.30;4.13;;;;;;;;;;5054041;28;20071;-73
2022/08/20 05:23:05;;;;;;;10.90;4.00;;;;;;;;;;5055612;28;20544;-72
2022/08/20 05:25:30;;;;;;;9.93;4.32;;;;;;;;;;5039901;28;20051;-72
2022/08/20 05:28:08;;;;;;;10.55;4.03;;;;;;;;;;5038334;28;20550;-73
2022/08/20 05:30:34;;;;;;;14.77;4.40;;;;;;;;;;5042475;28;20033;-73
2022/08/20 05:33:02;;;;;;;12.48;4.32;;;;;;;;;;5023395;28;20535;-67
2022/08/20 05:35:28;;;;;;;17.77;4.90;;;;;;;;;;5030899;28;20033;-67
2022/08/20 05:37:53;;;;;;;9.90;4.03;;;;;;;;;;5018571;28;20122;-67
2022/08/20 05:40:18;;;;;;;13.02;4.68;;;;;;;;;;5019696;28;20531;-67
2022/08/20 05:42:44;;;;;;;11.85;4.18;;;;;;;;;;5019455;28;20029;-67
2022/08/20 05:45:10;;;;;;;8.55;3.63;;;;;;;;;;5031872;28;20029;-67
2022/08/20 05:47:37;;;;;;;13.82;4.10;;;;;;;;;;5033202;28;20067;-66
2022/08/20 05:50:04;;;;;;;8.88;3.47;;;;;;;;;;5017462;28;20640;-67
2022/08/20 05:52:30;;;;;;;14.10;4.07;;;;;;;;;;5019051;28;20093;-66
2022/08/20 05:54:56;;;;;;;9.38;3.50;;;;;;;;;;5031610;28;20563;-67
2022/08/20 05:57:21;;;;;;;9.35;3.60;;;;;;;;;;5019581;28;20067;-67
2022/08/20 05:59:47;;;;;;;11.57;3.50;;;;;;;;;;5016301;28;20036;-67
2022/08/20 06:04:56;;;;;;;11.93;3.53;;;;;;;;;;5016545;28;20769;-67
2022/08/20 06:07:22;;;;;;;14.80;3.72;;;;;;;;;;5020236;28;20639;-68
2022/08/20 06:09:47;;;;;;;9.43;3.40;;;;;;;;;;5019634;28;20047;-67
2022/08/20 06:12:13;;;;;;;11.70;3.50;;;;;;;;;;5015506;28;20157;-67
2022/08/20 06:14:39;;;;;;;10.90;3.15;;;;;;;;;;5019403;28;20029;-67
2022/08/20 06:17:05;;;;;;;13.43;4.00;;;;;;;;;;5032638;28;21073;-67
2022/08/20 06:19:31;;;;;;;13.60;3.47;;;;;;;;;;5017938;28;20560;-67
2022/08/20 06:21:57;;;;;;;9.85;2.88;;;;;;;;;;5017735;28;20443;-68
2022/08/20 06:24:23;;;;;;;12.85;3.40;;;;;;;;;;5014365;28;20071;-68
2022/08/20 06:26:54;;;;;;;10.88;3.38;;;;;;;;;;5019159;28;20191;-67
2022/08/20 06:29:19;;;;;;;7.72;2.83;;;;;;;;;;5029116;28;20036;-73
2022/08/20 06:31:45;;;;;;;8.93;2.80;;;;;;;;;;5032033;28;20028;-72
2022/08/20 06:34:10;;;;;;;12.45;3.08;;;;;;;;;;5023176;28;20032;-72
2022/08/20 06:36:36;;;;;;;12.05;3.40;;;;;;;;;;5021522;28;20295;-67
2022/08/20 06:39:02;;;;;;;16.15;2.72;;;;;;;;;;5018436;28;20046;-68
2022/08/20 06:41:28;;;;;;;9.35;2.50;;;;;;;;;;5018566;28;20151;-72
2022/08/20 06:43:53;;;;;;;9.32;2.72;;;;;;;;;;5026707;28;20572;-72
2022/08/20 06:46:19;;;;;;;10.25;2.45;;;;;;;;;;5024808;28;20033;-73
2022/08/20 06:48:44;;;;;;;11.13;2.70;;;;;;;;;;5021335;28;20047;-71
2022/08/20 06:51:10;;;;;;;7.50;2.45;;;;;;;;;;5024938;28;20036;-71
2022/08/20 06:53:36;;;;;;;8.50;2.40;;;;;;;;;;5017585;28;20572;-73
2022/08/20 06:56:01;;;;;;;9.68;1.90;;;;;;;;;;5035753;28;20280;-73
2022/08/20 06:58:30;;;;;;;10.10;2.55;;;;;;;;;;5027772;28;20028;-73
2022/08/20 07:00:56;;;;;;;9.27;2.20;;;;;;;;;;5024488;28;20264;-73
2022/08/20 07:03:21;;;;;;;12.05;2.53;;;;;;;;;;5025248;28;20029;-71
2022/08/20 07:05:47;;;;;;;9.77;2.15;;;;;;;;;;5023612;28;20045;-70
2022/08/20 07:08:13;;;;;;;10.52;2.10;;;;;;;;;;5042916;28;20029;-70
2022/08/20 07:10:41;;;;;;;11.40;2.70;;;;;;;;;;5039658;28;20056;-70
2022/08/20 07:13:08;;;;;;;10.30;2.55;;;;;;;;;;5042510;28;20112;-71
2022/08/20 07:15:33;;;;;;;10.43;2.50;;;;;;;;;;5030399;28;20365;-71
2022/08/20 07:18:00;;;;;;;12.93;2.65;;;;;;;;;;5033819;28;20040;-71
2022/08/20 07:20:26;;;;;;;12.85;2.40;;;;;;;;;;5022604;28;20288;-71
2022/08/20 07:22:52;;;;;;;11.20;2.25;;;;;;;;;;5033417;28;20033;-70
2022/08/20 07:25:19;;;;;;;7.47;2.15;;;;;;;;;;5031800;28;20570;-70
2022/08/20 07:27:45;;;;;;;10.05;2.40;;;;;;;;;;5064580;28;20334;-70
2022/08/20 07:32:56;;;;;;;11.68;2.47;;;;;;;;;;5025268;27;20067;-70
2022/08/20 07:35:22;;;;;;;10.30;2.63;;;;;;;;;;5032462;27;20488;-70
2022/08/20 07:37:48;;;;;;;11.20;2.38;;;;;;;;;;5011562;28;20043;-70
2022/08/20 07:40:20;;;;;;;7.82;2.10;;;;;;;;;;5029689;28;20025;-71
2022/08/20 07:42:46;;;;;;;;;;;;;;;;;;5027832;28;20037;-70
2022/08/20 07:45:13;;;;;;;8.75;2.33;;;;;;;;;;5046122;28;19919;-70
2022/08/20 07:47:40;;;;;;;9.73;2.92;;;;;;;;;;5031143;28;20040;-69
2022/08/20 07:50:07;;;;;;;10.40;2.40;;;;;;;;;;5028889;28;20065;-69
2022/08/20 07:52:35;;;;;;;9.82;2.10;;;;;;;;;;5020845;28;20246;-65
2022/08/20 07:55:02;;;;;;;7.80;2.38;;;;;;;;;;5016440;28;20032;-65
2022/08/20 07:57:29;;;;;;;9.02;2.00;;;;;;;;;;5015920;28;20117;-66
2022/08/20 07:59:58;;;;;;;10.07;2.50;;;;;;;;;;5025712;28;20032;-70
2022/08/20 08:02:25;;;;;;;8.65;2.00;;;;;;;;;;5027925;28;20040;-70
2022/08/20 08:04:50;;;;;;;6.13;1.90;;;;;;;;;;5031379;28;20197;-71
2022/08/20 08:07:16;;;;;;;7.47;2.25;;;;;;;;;;5033398;28;20525;-71
2022/08/20 08:09:43;;;;;;;9.93;2.10;;;;;;;;;;5037222;28;20769;-71
2022/08/20 08:12:10;;;;;;;7.68;1.80;;;;;;;;;;5044659;28;20122;-66
2022/08/20 08:14:38;;;;;;;7.13;2.22;;;;;;;;;;5023372;28;20034;-66
2022/08/20 08:17:04;;;;;;;9.10;2.10;;;;;;;;;;5020907;28;20044;-66
2022/08/20 08:19:37;;;;;;;6.28;1.80;;;;;;;;;;5021233;28;20281;-66
2022/08/20 08:22:06;;;;;;;9.50;2.33;;;;;;;;;;5022118;28;20044;-66
2022/08/20 08:24:32;;;;;;;7.28;1.80;;;;;;;;;;5008871;28;20040;-66
2022/08/20 08:26:58;;;;;;;10.07;2.00;;;;;;;;;;5020684;28;20060;-66
2022/08/20 08:29:23;;;;;;;9.75;2.42;;;;;;;;;;5020080;28;20748;-66
2022/08/20 08:31:49;;;;;;;9.18;2.10;;;;;;;;;;5021107;28;20341;-66
2022/08/20 08:34:14;;;;;;;8.30;1.88;;;;;;;;;;5019809;28;20052;-70
2022/08/20 08:36:41;;;;;;;8.07;1.75;;;;;;;;;;5021568;28;20044;-66
2022/08/20 08:39:07;;;;;;;6.50;2.10;;;;;;;;;;5028597;28;20068;-70
2022/08/20 08:41:39;;;;;;;8.25;1.90;;;;;;;;;;5028317;28;20088;-70
2022/08/20 08:44:09;;;;;;;7.85;1.88;;;;;;;;;;5045746;28;20217;-70
2022/08/20 08:46:39;;;;;;;9.30;1.77;;;;;;;;;;5034396;28;20033;-71
2022/08/20 08:49:04;;;;;;;10.35;2.08;;;;;;;;;;5036768;28;20033;-68
2022/08/20 08:51:36;;;;;;;10.35;2.17;;;;;;;;;;5034809;28;20040;-71
2022/08/20 08:54:01;;;;;;;7.07;1.85;;;;;;;;;;5034739;28;20628;-70
2022/08/20 08:56:28;;;;;;;9.10;1.70;;;;;;;;;;5030879;28;20139;-70
2022/08/20 08:58:59;;;;;;;8.48;2.05;;;;;;;;;;5034343;28;20401;-70
2022/08/20 09:01:24;;;;;;;;;;;;;;;;;;5034120;28;20609;-71
2022/08/20 09:03:50;;;;;;;10.53;2.10;;;;;;;;;;5033244;28;19927;-71
2022/08/20 09:06:19;;;;;;;7.30;1.90;;;;;;;;;;5038720;28;20147;-69
2022/08/20 09:08:55;;;;;;;6.10;1.80;;;;;;;;;;5036596;28;20116;-69
2022/08/20 09:11:22;;;;;;;8.40;2.25;;;;;;;;;;5051060;28;20053;-69
2022/08/20 09:13:47;;;;;;;7.47;1.77;;;;;;;;;;5037194;28;20037;-71
2022/08/20 09:16:13;;;;;;;6.32;1.85;;;;;;;;;;5031314;28;20109;-70
2022/08/20 09:18:39;;;;;;;9.35;2.10;;;;;;;;;;5030262;28;20025;-69
2022/08/20 09:21:05;;;;;;;9.45;2.10;;;;;;;;;;5033320;28;20066;-69
2022/08/20 09:23:30;;;;;;;10.60;2.30;;;;;;;;;;5033463;28;20149;-70
2022/08/20 09:25:56;;;;;;;9.70;1.60;;;;;;;;;;5036952;28;20045;-70
2022/08/20 09:28:21;;;;;;;7.82;2.00;;;;;;;;;;5031377;28;20029;-70
2022/08/20 09:30:47;;;;;;;10.55;2.25;;;;;;;;;;5029819;28;20090;-68
2022/08/20 09:33:12;;;;;;;10.00;2.10;;;;;;;;;;5030969;28;20032;-69
2022/08/20 09:35:38;;;;;;;9.80;2.03;;;;;;;;;;5030823;28;20024;-68
2022/08/20 09:38:04;;;;;;;8.65;2.00;;;;;;;;;;5032121;28;20052;-68
2022/08/20 09:40:29;;;;;;;12.63;2.40;;;;;;;;;;5030782;28;20474;-68
2022/08/20 09:42:54;;;;;;;6.03;1.77;;;;;;;;;;5034191;28;20228;-69
2022/08/20 09:45:20;;;;;;;10.60;1.98;;;;;;;;;;5031163;28;20575;-69
2022/08/20 09:47:46;;;;;;;7.93;1.95;;;;;;;;;;5033646;28;20071;-69
2022/08/20 09:50:11;;;;;;;7.65;1.90;;;;;;;;;;5032841;28;20060;-70
2022/08/20 09:52:40;;;;;;;7.30;1.60;;;;;;;;;;5026547;28;20044;-70
2022/08/20 09:55:11;;;;;;;9.20;2.25;;;;;;;;;;5031129;28;20646;-67
2022/08/20 09:57:36;;;;;;;8.30;2.10;;;;;;;;;;5030133;28;20049;-70
2022/08/20 10:00:05;;;;;;;8.55;1.80;;;;;;;;;;5030271;28;20501;-71
2022/08/20 10:02:31;;;;;;;11.30;1.80;;;;;;;;;;5042067;28;20041;-69
2022/08/20 10:04:56;;;;;;;7.50;1.67;;;;;;;;;;5025904;28;20451;-68
2022/08/20 10:07:22;;;;;;;8.10;1.67;;;;;;;;;;5032069;28;20426;-70
2022/08/20 10:09:47;;;;;;;8.73;2.42;;;;;;;;;;5041584;28;20041;-69
2022/08/20 10:12:12;;;;;;;11.30;2.10;;;;;;;;;;5041929;28;20118;-68
2022/08/20 10:14:38;;;;;;;8.88;2.08;;;;;;;;;;5027530;28;20040;-70
2022/08/20 10:17:03;;;;;;;7.93;1.80;;;;;;;;;;5029734;28;20040;-70
2022/08/20 10:19:30;;;;;;;10.63;2.03;;;;;;;;;;5025632;28;20254;-69
2022/08/20 10:21:55;;;;;;;9.70;2.13;;;;;;;;;;5026616;28;20151;-69
2022/08/20 10:24:21;;;;;;;8.65;1.85;;;;;;;;;;5041377;28;20036;-69
2022/08/20 10:26:47;;;;;;;7.93;1.70;;;;;;;;;;5027115;28;20600;-70
2022/08/20 10:29:13;;;;;;;8.88;1.92;;;;;;;;;;5024630;28;20102;-69
2022/08/20 10:31:39;;;;;;;7.85;1.80;;;;;;;;;;5025924;28;20033;-68
2022/08/20 10:34:04;;;;;;;7.97;1.95;;;;;;;;;;5026475;28;20032;-70
2022/08/20 10:36:30;;;;;;;10.80;2.05;;;;;;;;;;5026331;28;20642;-70
2022/08/20 10:38:55;;;;;;;7.07;1.80;;;;;;;;;;5027747;28;20378;-69
2022/08/20 10:41:21;;;;;;;10.35;1.83;;;;;;;;;;5028726;28;20024;-70
2022/08/20 10:43:46;;;;;;;7.15;1.77;;;;;;;;;;5027427;28;22277;-68
2022/08/20 10:46:11;;;;;;;11.38;2.13;;;;;;;;;;5023257;28;20922;-70
2022/08/20 10:48:37;;;;;;;7.18;2.03;;;;;;;;;;5027000;28;22037;-69
2022/08/20 10:51:03;;;;;;;10.07;2.00;;;;;;;;;;5028995;28;20037;-69
2022/08/20 10:53:28;;;;;;;5.95;1.77;;;;;;;;;;5031859;28;20593;-71
2022/08/20 10:55:55;;;;;;;12.57;2.17;;;;;;;;;;5027279;28;20585;-70
2022/08/20 10:58:20;;;;;;;8.10;1.63;;;;;;;;;;5028726;28;20040;-70
2022/08/20 11:00:46;;;;;;;6.93;1.83;;;;;;;;;;5023463;28;20508;-69
2022/08/20 11:03:11;;;;;;;9.07;2.17;;;;;;;;;;5011538;28;20261;-70
2022/08/20 11:05:37;;;;;;;7.30;1.70;;;;;;;;;;5021950;28;20166;-71
2022/08/20 11:08:02;;;;;;;6.30;1.95;;;;;;;;;;5021101;28;20114;-70
2022/08/20 11:10:29;;;;;;;10.48;2.40;;;;;;;;;;5026025;28;20041;-68
2022/08/20 11:12:56;;;;;;;12.15;2.40;;;;;;;;;;5028605;28;20071;-72
2022/08/20 11:15:21;;;;;;;10.38;2.05;;;;;;;;;;5027489;28;20035;-69
2022/08/20 11:17:47;;;;;;;6.03;1.73;;;;;;;;;;5025902;28;20056;-69
2022/08/20 11:20:13;;;;;;;6.63;1.88;;;;;;;;;;5038868;28;20040;-70
2022/08/20 11:22:39;;;;;;;7.43;1.70;;;;;;;;;;5023015;28;20341;-69
2022/08/20 11:25:05;;;;;;;8.15;1.80;;;;;;;;;;5023963;28;20770;-69
2022/08/20 11:27:34;;;;;;;11.27;2.25;;;;;;;;;;5026277;28;20514;-70
2022/08/20 11:30:00;;;;;;;8.48;1.77;;;;;;;;;;5021402;28;20366;-69
2022/08/20 11:32:25;;;;;;;9.20;1.80;;;;;;;;;;5021548;28;20147;-69
2022/08/20 11:34:51;;;;;;;6.90;1.75;;;;;;;;;;5038984;28;20445;-70
2022/08/20 11:37:17;;;;;;;6.88;1.73;;;;;;;;;;5027524;28;20463;-72
2022/08/20 11:39:43;;;;;;;8.00;1.85;;;;;;;;;;5033906;28;20345;-71
2022/08/20 11:42:10;;;;;;;10.75;1.88;;;;;;;;;;5023367;28;20288;-70
2022/08/20 11:44:35;;;;;;;9.23;2.10;;;;;;;;;;5024671;28;20704;-70
2022/08/20 11:47:02;;;;;;;9.38;1.65;;;;;;;;;;5027750;28;20066;-70
2022/08/20 11:49:28;;;;;;;10.10;1.80;;;;;;;;;;5021713;28;20078;-71
2022/08/20 11:51:53;;;;;;;6.90;1.63;;;;;;;;;;5025025;28;20194;-70
2022/08/20 11:54:19;;;;;;;12.85;2.00;;;;;;;;;;5018159;28;20043;-70
2022/08/20 11:56:45;;;;;;;7.32;1.50;;;;;;;;;;5025131;28;20104;-71
2022/08/20 11:59:10;;;;;;;6.88;1.80;;;;;;;;;;5018429;28;20032;-70
2022/08/20 12:01:35;;;;;;;6.95;1.90;;;;;;;;;;5020748;28;20044;-71
2022/08/20 12:04:00;;;;;;;8.73;1.92;;;;;;;;;;5018270;28;20047;-70
2022/08/20 12:06:26;;;;;;;11.32;2.22;;;;;;;;;;5018892;28;20032;-70
2022/08/20 12:08:51;;;;;;;7.95;2.00;;;;;;;;;;5021127;28;20044;-70
2022/08/20 12:11:16;;;;;;;7.07;1.98;;;;;;;;;;5019595;28;20033;-70
2022/08/20 12:13:42;;;;;;;7.90;1.95;;;;;;;;;;5028712;28;20061;-70
2022/08/20 12:16:07;;;;;;;7.65;1.80;;;;;;;;;;5021129;28;20160;-70
2022/08/20 12:18:33;;;;;;;11.55;2.10;;;;;;;;;;5021314;28;20220;-71
2022/08/20 12:20:59;;;;;;;8.48;1.83;;;;;;;;;;5018256;28;21956;-71
2022/08/20 12:23:24;;;;;;;9.90;1.90;;;;;;;;;;5016616;28;20742;-71
2022/08/20 12:25:49;;;;;;;9.93;1.92;;;;;;;;;;5025117;28;20048;-71
2022/08/20 12:28:15;;;;;;;9.77;2.10;;;;;;;;;;5020361;28;20090;-69
2022/08/20 12:30:40;;;;;;;8.50;1.90;;;;;;;;;;5023200;28;20353;-69
2022/08/20 12:33:06;;;;;;;8.95;1.83;;;;;;;;;;5021655;28;20569;-71
2022/08/20 12:35:31;;;;;;;9.05;2.13;;;;;;;;;;5021283;28;20028;-71
2022/08/20 12:37:57;;;;;;;9.70;2.13;;;;;;;;;;5021190;28;20165;-72
2022/08/20 12:40:23;;;;;;;8.85;1.70;;;;;;;;;;5034883;28;20297;-69
2022/08/20 12:42:49;;;;;;;9.73;2.22;;;;;;;;;;5020164;28;20137;-71
2022/08/20 12:45:15;;;;;;;9.32;1.88;;;;;;;;;;5019351;28;20033;-72
2022/08/20 12:47:42;;;;;;;8.50;1.88;;;;;;;;;;5023349;28;20032;-68
2022/08/20 12:50:12;;;;;;;7.65;2.25;;;;;;;;;;5018386;28;21862;-70
2022/08/20 12:52:37;;;;;;;10.93;2.05;;;;;;;;;;5019606;28;20029;-71
2022/08/20 12:55:03;;;;;;;6.95;1.98;;;;;;;;;;5020246;28;20398;-72
2022/08/20 12:57:30;;;;;;;9.38;1.95;;;;;;;;;;5018687;28;20479;-71
2022/08/20 12:59:56;;;;;;;10.57;2.40;;;;;;;;;;5021034;28;20037;-72
2022/08/20 13:02:21;;;;;;;10.50;2.33;;;;;;;;;;5018713;28;20073;-66
2022/08/20 13:04:47;;;;;;;9.30;2.47;;;;;;;;;;5019316;28;20075;-67
2022/08/20 13:07:13;;;;;;;8.48;2.22;;;;;;;;;;5016795;28;20033;-67
2022/08/20 13:09:39;;;;;;;9.10;2.40;;;;;;;;;;5014051;28;20040;-69
2022/08/20 13:12:04;;;;;;;8.15;2.15;;;;;;;;;;5032560;28;20308;-69
2022/08/20 13:14:30;;;;;;;12.15;2.42;;;;;;;;;;5019481;28;20145;-71
2022/08/20 13:16:59;;;;;;;9.25;2.17;;;;;;;;;;5019329;28;20108;-68
2022/08/20 13:19:25;;;;;;;6.38;1.98;;;;;;;;;;5018626;28;20047;-69
2022/08/20 13:21:51;;;;;;;11.60;1.83;;;;;;;;;;5017626;28;20670;-67
2022/08/20 13:24:17;;;;;;;8.65;1.60;;;;;;;;;;5020160;28;20382;-71
2022/08/20 13:26:43;;;;;;;9.98;2.70;;;;;;;;;;5018591;28;20040;-70
2022/08/20 13:29:09;;;;;;;13.07;2.33;;;;;;;;;;5016775;28;20025;-70
2022/08/20 13:31:34;;;;;;;6.78;2.40;;;;;;;;;;5014744;28;20148;-70
2022/08/20 13:34:00;;;;;;;7.43;1.77;;;;;;;;;;5019899;28;20675;-69
2022/08/20 13:36:26;;;;;;;10.10;3.13;;;;;;;;;;5020572;28;20505;-69
2022/08/20 13:38:51;;;;;;;6.70;1.90;;;;;;;;;;5023863;28;20573;-70
2022/08/20 13:41:16;;;;;;;8.38;2.22;;;;;;;;;;5019083;28;20503;-72
2022/08/20 13:43:42;;;;;;;10.45;1.60;;;;;;;;;;5017455;28;20316;-67
2022/08/20 13:46:08;;;;;;;8.25;1.95;;;;;;;;;;5017901;28;20515;-73
2022/08/20 13:48:33;;;;;;;4.03;1.40;;;;;;;;;;5016549;28;20132;-71
2022/08/20 13:50:58;;;;;;;11.82;2.10;;;;;;;;;;5017819;28;20104;-73
2022/08/20 13:53:24;;;;;;;5.32;1.75;;;;;;;;;;5017545;28;20025;-71
2022/08/20 13:55:50;;;;;;;7.57;1.80;;;;;;;;;;5018957;28;20041;-71
2022/08/20 13:58:16;;;;;;;8.38;1.70;;;;;;;;;;5018419;28;20083;-71
2022/08/20 14:00:42;;;;;;;9.45;1.65;;;;;;;;;;5017733;28;20744;-69
2022/08/20 14:03:07;;;;;;;8.90;1.65;;;;;;;;;;5014605;28;20056;-67
2022/08/20 14:05:34;;;;;;;12.98;1.85;;;;;;;;;;5016089;28;20244;-68
2022/08/20 14:08:07;;;;;;;7.13;1.60;;;;;;;;;;5015284;28;20040;-67
2022/08/20 14:10:32;;;;;;;7.28;1.75;;;;;;;;;;5014015;28;20548;-69
2022/08/20 14:12:58;;;;;;;6.88;1.50;;;;;;;;;;5016274;28;20082;-70
2022/08/20 14:15:24;;;;;;;7.05;1.45;;;;;;;;;;5016164;28;20552;-70
2022/08/20 14:17:51;;;;;;;8.77;1.60;;;;;;;;;;5018576;28;20044;-67
2022/08/20 14:20:18;;;;;;;8.93;1.80;;;;;;;;;;5016494;28;20047;-71
2022/08/20 14:22:44;;;;;;;5.50;1.50;;;;;;;;;;5017970;28;20345;-71
2022/08/20 14:25:12;;;;;;;6.18;1.58;;;;;;;;;;5017052;28;20060;-70
2022/08/20 14:27:38;;;;;;;4.88;1.40;;;;;;;;;;5016151;28;20516;-69
2022/08/20 14:30:05;;;;;;;6.88;1.65;;;;;;;;;;5016350;28;20032;-67
2022/08/20 14:32:30;;;;;;;8.40;1.40;;;;;;;;;;5015126;28;20041;-68
2022/08/20 14:34:58;;;;;;;12.18;2.92;;;;;;;;;;5019608;28;20134;-72
2022/08/20 14:37:36;;;;;;;10.25;2.10;;;;;;;;;;5016433;28;20040;-72
2022/08/20 14:40:05;;;;;;;7.53;1.83;;;;;;;;;;5018703;28;20037;-70